Juliaetta, ID

4:31 AM PDT on September 16, 2014 (GMT -0700)
Mullan Pass | Change Station
CLOSE
Current Station
Airport
Location: Mullan Pass,
Elevation: 6073 ft
Nearby Weather Stations

Elev 6073 ft 47.45 °N, 115.67 °W | Updated 38 minutes ago

Clear
Clear
62 °F
Feels Like 62 °F
N
6
Wind Variable Wind from South

Today
High -- | Low -- °F
--% Chance of Precip.
Yesterday
High -- | Low -- °F
Precip. -- in
6:26 AM 6:56 PM
Last Quarter, 46% visible
Pressure 29.81 in
Visibility 10.0 miles
Clouds Mostly Cloudy 10000 ft
Dew Point 26 °F
Humidity 25%
Rainfall 0.00 in
Snow Depth 1 in , 0 in , 0 in
UV 0 out of 12
Pollen 6.90 out of 12
PM2.5 Moderate
Flu Activity Not available.
METAR KMLP 161053Z AUTO 18005KT 10SM BKN100 17/M03 A3012 RMK AO2 SLP094 T01671033

More Conditions Fewer Conditions

Pressure 29.81 in
Visibility 10.0 miles
Clouds Mostly Cloudy 10000 ft
Dew Point 26 °F
Humidity 25%
Rainfall 0.00 in
Snow Depth 1 in , 0 in , 0 in
UV 0 out of 12
Pollen 6.90 out of 12
PM2.5 Moderate
Flu Activity Not available.
METAR KMLP 161053Z AUTO 18005KT 10SM BKN100 17/M03 A3012 RMK AO2 SLP094 T01671033

More Conditions Fewer Conditions

10-Day Weather Forecast

Almanac

Astronomy

Sep. 16, 2014 Rise Set
Actual Time 6:26 AM PDT 6:56 PM PDT
Civil Twilight 5:55 AM PDT 7:26 PM PDT
Nautical Twilight 5:19 AM PDT 8:02 PM PDT
Astronomical Twilight 4:42 AM PDT 8:39 PM PDT
Moon No Moon Rise 2:39 PM PDT
Length of Visible Light 13h 30m
Length of Day
12h 30m
Tomorrow will be 3m 16s shorter.
Last Quarter, 46% of the Moon is Illuminated
Today
Last Quarter
Sep 24
New
Oct 1
First Quarter
Oct 8
Full
Oct 15
Last Quarter

Today's Extremes

State Highs State Lows

Community

WunderPhotos

Upload Photos

1,753,724 photos uploaded!

WunderBlogs® & News

By Dr. Jeff Masters
Director of Meteorology, Weather Underground
By Kari Strenfel
Meteorologist, Weather Underground
By Christopher C. Burt
Weather Historian, Weather Underground
September 16, 2014
September 16, 2014
September 16, 2014

Nearby

Air Quality

  Air Quality AQ Index Pollutant
Yesterday Moderate
PM2.5
Current Moderate
PM2.5
Tuesday Moderate
PM2.5
Wednesday Good
PM2.5

Snow Depth

Station Depth Elevation
Brundage Reservoir 1 in 6300 ft
Squaw Flat 0 in 6240 ft
Myrtle Creek 0 in 3520 ft
Schwartz Lake 0 in 8620 ft
Mill Creek Summit 1 in 8800 ft

Earthquake Activity

City Distance Mag. Time & Date
No recent earthquake activity has been reported nearby.
Minimum magnitude displayed is 2.5.

Coastal Water Temperatures

Place Temperature
No Stations Reporting

Nearby Weather Stations